createdAt,value
2018-08-30T00:01:28.633Z,43
2018-08-30T00:11:27.722Z,43
2018-08-30T00:21:28.226Z,40
2018-08-30T00:31:28.931Z,41
2018-08-30T00:41:27.183Z,40
2018-08-30T00:51:27.455Z,44
2018-08-30T01:01:28.842Z,42
2018-08-30T01:11:30.123Z,40
2018-08-30T01:21:28.161Z,41
2018-08-30T01:31:27.932Z,45
2018-08-30T01:41:26.811Z,44
2018-08-30T01:51:28.826Z,44
2018-08-30T02:01:29.612Z,41
2018-08-30T02:11:28.389Z,41
2018-08-30T02:21:28.553Z,44
2018-08-30T02:31:29.126Z,42
2018-08-30T02:41:28.283Z,44
2018-08-30T02:51:28.699Z,44
2018-08-30T03:01:27.580Z,42
2018-08-30T03:11:28.722Z,45
2018-08-30T03:21:26.776Z,42
2018-08-30T03:31:29.031Z,45
2018-08-30T03:41:27.992Z,42
2018-08-30T03:51:29.185Z,41
2018-08-30T04:01:28.411Z,45
2018-08-30T04:11:27.214Z,43
2018-08-30T04:21:28.252Z,44
2018-08-30T04:31:29.800Z,42
2018-08-30T04:41:28.689Z,41
2018-08-30T04:51:30.680Z,42
2018-08-30T05:01:29.019Z,42
2018-08-30T05:11:29.486Z,41
2018-08-30T05:21:30.136Z,41
2018-08-30T05:31:28.012Z,41
2018-08-30T05:41:27.880Z,45
2018-08-30T05:51:29.530Z,41
2018-08-30T06:01:28.670Z,44
2018-08-30T06:11:28.536Z,44
2018-08-30T06:21:29.605Z,42
2018-08-30T06:31:28.843Z,45
2018-08-30T06:41:29.070Z,45
2018-08-30T06:51:28.500Z,45
2018-08-30T07:01:29.652Z,42
2018-08-30T07:11:29.137Z,42
2018-08-30T07:21:27.514Z,44
2018-08-30T07:31:40.534Z,42
2018-08-30T07:41:27.750Z,44
2018-08-30T07:51:27.634Z,42
2018-08-30T08:01:28.478Z,41
2018-08-30T08:11:29.095Z,40
2018-08-30T08:21:28.375Z,42
2018-08-30T08:31:28.422Z,42
2018-08-30T08:41:28.797Z,40
2018-08-30T08:51:33.956Z,41
2018-08-30T09:01:30.512Z,42
2018-08-30T09:11:29.481Z,44
2018-08-30T09:21:49.397Z,42
2018-08-30T09:31:34.262Z,41
2018-08-30T09:41:27.844Z,42
2018-08-30T09:51:33.312Z,42
2018-08-30T10:01:31.124Z,39
2018-08-30T10:11:28.493Z,40
2018-08-30T10:21:29.505Z,43
2018-08-30T10:31:58.772Z,42
2018-08-30T10:41:45.776Z,42
2018-08-30T10:51:57.658Z,42
2018-08-30T11:01:43.665Z,41
2018-08-30T11:21:36.054Z,39
2018-08-30T11:31:27.248Z,40
2018-08-30T11:41:49.528Z,40
2018-08-30T11:51:53.825Z,37
2018-08-30T12:02:04.335Z,37
2018-08-30T12:11:53.294Z,38
2018-08-30T12:31:43.485Z,40
2018-08-30T12:41:28.437Z,37
2018-08-30T12:51:35.660Z,37
2018-08-30T13:02:03.575Z,37
2018-08-30T13:11:44.577Z,37
2018-08-30T13:21:31.434Z,39
2018-08-30T13:31:35.839Z,38
2018-08-30T13:42:01.459Z,37
2018-08-30T13:52:02.680Z,36
2018-08-30T14:01:37.112Z,36
2018-08-30T14:11:52.185Z,36
2018-08-30T14:21:35.115Z,36
2018-08-30T14:31:33.188Z,37
2018-08-30T14:41:28.933Z,36
2018-08-30T14:51:33.184Z,38
2018-08-30T15:01:27.414Z,37
2018-08-30T15:11:29.605Z,36
2018-08-30T15:21:27.752Z,36
2018-08-30T15:41:31.031Z,37
2018-08-30T15:51:49.885Z,38
2018-08-30T16:02:03.530Z,38
2018-08-30T16:11:52.053Z,36
2018-08-30T16:21:41.263Z,36
2018-08-30T16:31:52.830Z,36
2018-08-30T16:41:29.421Z,36
2018-08-30T16:51:39.597Z,36
2018-08-30T17:01:50.149Z,36
2018-08-30T17:21:49.882Z,38
2018-08-30T17:42:29.842Z,40
2018-08-30T17:51:59.376Z,37
2018-08-30T18:02:12.760Z,39
2018-08-30T18:11:50.561Z,37
2018-08-30T18:21:40.336Z,37
2018-08-30T18:32:22.015Z,37
2018-08-30T18:42:19.114Z,38
2018-08-30T18:51:33.162Z,39
2018-08-30T19:01:28.992Z,40
2018-08-30T19:21:27.997Z,37
2018-08-30T19:31:28.001Z,40
2018-08-30T19:41:27.596Z,39
2018-08-30T19:51:33.137Z,38
2018-08-30T20:01:28.311Z,38
2018-08-30T20:11:28.091Z,38
2018-08-30T20:21:27.897Z,38
2018-08-30T20:31:28.109Z,38
2018-08-30T20:41:27.743Z,40
2018-08-30T20:51:27.756Z,38
2018-08-30T21:01:28.115Z,42
2018-08-30T21:11:27.855Z,39
2018-08-30T21:21:27.181Z,39
2018-08-30T21:31:28.196Z,39
2018-08-30T21:41:27.835Z,39
2018-08-30T21:51:33.761Z,42
2018-08-30T22:01:28.105Z,42
2018-08-30T22:11:29.175Z,40
2018-08-30T22:21:27.369Z,42
2018-08-30T22:31:27.755Z,42
2018-08-30T22:41:30.328Z,39
2018-08-30T22:51:28.656Z,39
2018-08-30T23:01:27.897Z,39
2018-08-30T23:11:32.742Z,42
2018-08-30T23:21:27.251Z,41
2018-08-30T23:31:27.364Z,43
2018-08-30T23:41:27.389Z,43
2018-08-30T23:51:27.644Z,43
